To NAV CANADA Home Page Login to a new session Search on AWWS site Feedback and Comments Disclaimer Vers la page française équivalente Tips FAQ What's new on the site To the Forecasts and Observations / NOTAM section To "File a Flight Plan" website Publications and other links Update of the User's profile FIC Telephone Numbers My Weather Data Folder Route Weather Data Regional Weather Data Local Weather Data To the Forecasts and Observations / NOTAM section
Request Generated 03/30/2015 at 01:01:02 UTC . Weather information available at that time is displayed.

METAR/TAF

BAKER LAKE/NU    

METAR CYBK 300000Z 28010KT 20SM FEW100 M25/M29 A2996 RMK AC1 SLP150=
METAR CYBK 292300Z 30007KT 20SM FEW100 FEW210 M25/M29 A2997 RMK
AC1CI1 SLP153=
METAR CYBK 292200Z 30018KT 20SM DRSN FEW100 BKN210 M25/M29 A2996 RMK
AC1CI4 SLP149=

TAF CYBK 292338Z 3000/3012 31015KT P6SM FEW100
RMK NXT FCST BY 300600Z=
Your time UTC time
Weather data provided by Environment Canada and NAV CANADA